Rochester, NH

1:23 AM EST on November 23, 2014 (GMT -0500)
HADS ISINGLASS RIVER NEAR ROCHESTER NH US USGS | Change Station
CLOSE
Current Station
Personal Weather Station
Location: Rochester, NH
Elevation: 141 ft
Nearby Weather Stations

Elev 141 ft 43.23 °N, 70.96 °W | Updated 1 hour ago

Mostly Cloudy
Mostly Cloudy
29.0 °F
Feels Like 29.0 °F
N
-
Wind Variable Wind from North

Today
High -- | Low -- °F
--% Chance of Precip.
Yesterday
High -- | Low -- °F
Precip. -- in
6:46 AM 4:13 PM
New Moon, 1% visible
Pressure 30.00 in
Visibility 10.0 miles
Clouds Scattered Clouds 10000 ft
Mostly Cloudy 12000 ft
Dew Point Not available.
Humidity Not available.
Rainfall -999.00 in
Snow Depth Not available.
UV 0 out of 12
Pollen .10 out of 12
Air Quality Not available.
Flu Activity Not available.
METAR KDAW 230551Z AUTO 00000KT 10SM SCT100 BKN120 02/M08 A2999 RMK AO2 SLP158 T00221083 10039 20022 57001

More Conditions Fewer Conditions

Pressure 30.00 in
Visibility 10.0 miles
Clouds Scattered Clouds 10000 ft
Mostly Cloudy 12000 ft
Dew Point Not available.
Humidity Not available.
Rainfall -999.00 in
Snow Depth Not available.
UV 0 out of 12
Pollen .10 out of 12
Air Quality Not available.
Flu Activity Not available.
METAR KDAW 230551Z AUTO 00000KT 10SM SCT100 BKN120 02/M08 A2999 RMK AO2 SLP158 T00221083 10039 20022 57001

More Conditions Fewer Conditions

10-Day Weather Forecast

Almanac

Astronomy

Nov. 23, 2014 Rise Set
Actual Time
Civil Twilight
Nautical Twilight
Astronomical Twilight
Moon
Length of Visible Light
Length of Day
Tomorrow will be .
, % of the Moon is Illuminated

Today's Extremes

State Highs State Lows

Community

WunderPhotos

Upload Photos

1,773,019 photos uploaded!

WunderBlogs® & News

Nearby

Air Quality

  Air Quality AQ Index Pollutant
Not available.

Snow Depth

Station Depth Elevation

Earthquake Activity

City Distance Mag. Time & Date
Minimum magnitude displayed is 2.5.

Coastal Water Temperatures

Place Temperature

Nearby Weather Stations